sensor_id;sensor_type;location;lat;lon;timestamp;P1;durP1;ratioP1;P2;durP2;ratioP2
70455;SDS011;57916;51.996;5.180;2024-02-15T00:00:17;13.70;;;6.38;;
70455;SDS011;57916;51.996;5.180;2024-02-15T00:02:44;14.63;;;5.73;;
70455;SDS011;57916;51.996;5.180;2024-02-15T00:05:11;14.35;;;6.13;;
70455;SDS011;57916;51.996;5.180;2024-02-15T00:07:41;14.30;;;5.35;;
70455;SDS011;57916;51.996;5.180;2024-02-15T00:10:08;17.20;;;5.75;;
70455;SDS011;57916;51.996;5.180;2024-02-15T00:12:35;12.80;;;5.38;;
70455;SDS011;57916;51.996;5.180;2024-02-15T00:15:02;14.48;;;5.57;;
70455;SDS011;57916;51.996;5.180;2024-02-15T00:17:31;12.45;;;5.80;;
70455;SDS011;57916;51.996;5.180;2024-02-15T00:19:59;14.53;;;5.20;;
70455;SDS011;57916;51.996;5.180;2024-02-15T00:22:26;18.83;;;5.13;;
70455;SDS011;57916;51.996;5.180;2024-02-15T00:24:53;15.02;;;5.47;;
70455;SDS011;57916;51.996;5.180;2024-02-15T00:27:20;13.25;;;5.13;;
70455;SDS011;57916;51.996;5.180;2024-02-15T00:29:47;17.35;;;5.13;;
70455;SDS011;57916;51.996;5.180;2024-02-15T00:32:14;17.13;;;5.10;;
70455;SDS011;57916;51.996;5.180;2024-02-15T00:34:42;13.77;;;5.22;;
70455;SDS011;57916;51.996;5.180;2024-02-15T00:37:09;18.95;;;5.55;;
70455;SDS011;57916;51.996;5.180;2024-02-15T00:39:36;14.73;;;5.28;;
70455;SDS011;57916;51.996;5.180;2024-02-15T00:42:03;13.45;;;5.60;;
70455;SDS011;57916;51.996;5.180;2024-02-15T00:44:32;16.25;;;5.10;;
70455;SDS011;57916;51.996;5.180;2024-02-15T00:46:59;15.98;;;5.50;;
70455;SDS011;57916;51.996;5.180;2024-02-15T00:49:27;19.38;;;5.47;;
70455;SDS011;57916;51.996;5.180;2024-02-15T00:51:54;11.65;;;5.70;;
70455;SDS011;57916;51.996;5.180;2024-02-15T00:54:21;13.80;;;5.88;;
70455;SDS011;57916;51.996;5.180;2024-02-15T00:56:49;18.73;;;6.10;;
70455;SDS011;57916;51.996;5.180;2024-02-15T00:59:17;15.40;;;6.30;;
70455;SDS011;57916;51.996;5.180;2024-02-15T01:01:44;12.60;;;6.40;;
70455;SDS011;57916;51.996;5.180;2024-02-15T01:04:12;18.20;;;7.35;;
70455;SDS011;57916;51.996;5.180;2024-02-15T01:06:40;22.20;;;7.57;;
70455;SDS011;57916;51.996;5.180;2024-02-15T01:09:08;23.17;;;9.27;;
70455;SDS011;57916;51.996;5.180;2024-02-15T01:11:36;21.85;;;11.18;;
70455;SDS011;57916;51.996;5.180;2024-02-15T01:14:03;29.90;;;13.13;;
70455;SDS011;57916;51.996;5.180;2024-02-15T01:16:31;32.00;;;14.45;;
70455;SDS011;57916;51.996;5.180;2024-02-15T01:18:58;31.37;;;14.97;;
70455;SDS011;57916;51.996;5.180;2024-02-15T01:21:25;31.87;;;14.97;;
70455;SDS011;57916;51.996;5.180;2024-02-15T01:23:52;36.22;;;15.20;;
70455;SDS011;57916;51.996;5.180;2024-02-15T01:26:22;33.10;;;15.45;;
70455;SDS011;57916;51.996;5.180;2024-02-15T01:28:50;30.55;;;15.30;;
70455;SDS011;57916;51.996;5.180;2024-02-15T01:31:17;33.38;;;15.10;;
70455;SDS011;57916;51.996;5.180;2024-02-15T01:33:44;36.55;;;15.13;;
70455;SDS011;57916;51.996;5.180;2024-02-15T01:36:15;31.00;;;14.95;;
70455;SDS011;57916;51.996;5.180;2024-02-15T01:38:43;33.38;;;14.43;;
70455;SDS011;57916;51.996;5.180;2024-02-15T01:41:11;30.48;;;13.93;;
70455;SDS011;57916;51.996;5.180;2024-02-15T01:43:39;37.08;;;14.02;;
70455;SDS011;57916;51.996;5.180;2024-02-15T01:46:11;33.53;;;13.43;;
70455;SDS011;57916;51.996;5.180;2024-02-15T01:48:39;31.40;;;13.07;;
70455;SDS011;57916;51.996;5.180;2024-02-15T01:51:08;29.42;;;13.05;;
70455;SDS011;57916;51.996;5.180;2024-02-15T01:53:38;29.10;;;12.25;;
70455;SDS011;57916;51.996;5.180;2024-02-15T01:56:07;29.58;;;12.40;;
70455;SDS011;57916;51.996;5.180;2024-02-15T01:58:34;23.27;;;11.37;;
70455;SDS011;57916;51.996;5.180;2024-02-15T02:01:02;26.48;;;11.57;;
70455;SDS011;57916;51.996;5.180;2024-02-15T02:03:30;22.77;;;10.70;;
70455;SDS011;57916;51.996;5.180;2024-02-15T02:05:58;27.33;;;10.73;;
70455;SDS011;57916;51.996;5.180;2024-02-15T02:08:27;25.77;;;10.73;;
70455;SDS011;57916;51.996;5.180;2024-02-15T02:10:53;23.80;;;10.63;;
70455;SDS011;57916;51.996;5.180;2024-02-15T02:13:21;29.73;;;10.80;;
70455;SDS011;57916;51.996;5.180;2024-02-15T02:15:48;26.30;;;9.75;;
70455;SDS011;57916;51.996;5.180;2024-02-15T02:18:16;19.07;;;9.37;;
70455;SDS011;57916;51.996;5.180;2024-02-15T02:20:43;20.30;;;9.60;;
70455;SDS011;57916;51.996;5.180;2024-02-15T02:23:14;19.92;;;9.13;;
70455;SDS011;57916;51.996;5.180;2024-02-15T02:25:42;20.88;;;9.57;;
70455;SDS011;57916;51.996;5.180;2024-02-15T02:28:10;22.58;;;9.55;;
70455;SDS011;57916;51.996;5.180;2024-02-15T02:30:39;25.27;;;9.80;;
70455;SDS011;57916;51.996;5.180;2024-02-15T02:33:11;24.70;;;9.75;;
70455;SDS011;57916;51.996;5.180;2024-02-15T02:35:46;25.27;;;9.13;;
70455;SDS011;57916;51.996;5.180;2024-02-15T02:38:15;21.30;;;9.30;;
70455;SDS011;57916;51.996;5.180;2024-02-15T02:40:42;21.13;;;8.40;;
70455;SDS011;57916;51.996;5.180;2024-02-15T02:43:09;20.25;;;8.80;;
70455;SDS011;57916;51.996;5.180;2024-02-15T02:45:36;23.63;;;9.10;;
70455;SDS011;57916;51.996;5.180;2024-02-15T02:48:04;27.50;;;9.82;;
70455;SDS011;57916;51.996;5.180;2024-02-15T02:50:32;27.70;;;9.02;;
70455;SDS011;57916;51.996;5.180;2024-02-15T02:52:59;28.05;;;9.25;;
70455;SDS011;57916;51.996;5.180;2024-02-15T02:55:26;23.13;;;8.80;;
70455;SDS011;57916;51.996;5.180;2024-02-15T02:57:54;27.45;;;8.57;;
70455;SDS011;57916;51.996;5.180;2024-02-15T03:00:21;21.50;;;8.82;;
70455;SDS011;57916;51.996;5.180;2024-02-15T03:02:49;22.98;;;8.48;;
70455;SDS011;57916;51.996;5.180;2024-02-15T03:05:16;22.73;;;8.60;;
70455;SDS011;57916;51.996;5.180;2024-02-15T03:07:47;24.63;;;8.25;;
70455;SDS011;57916;51.996;5.180;2024-02-15T03:10:15;23.75;;;7.72;;
70455;SDS011;57916;51.996;5.180;2024-02-15T03:12:42;26.27;;;8.27;;
70455;SDS011;57916;51.996;5.180;2024-02-15T03:15:15;22.75;;;8.10;;
70455;SDS011;57916;51.996;5.180;2024-02-15T03:17:44;30.93;;;8.03;;
70455;SDS011;57916;51.996;5.180;2024-02-15T03:20:12;19.55;;;7.68;;
70455;SDS011;57916;51.996;5.180;2024-02-15T03:25:22;19.83;;;7.80;;
70455;SDS011;57916;51.996;5.180;2024-02-15T03:27:51;21.95;;;8.13;;
70455;SDS011;57916;51.996;5.180;2024-02-15T03:30:19;24.42;;;7.90;;
70455;SDS011;57916;51.996;5.180;2024-02-15T03:32:47;24.80;;;7.55;;
70455;SDS011;57916;51.996;5.180;2024-02-15T03:35:21;21.13;;;8.07;;
70455;SDS011;57916;51.996;5.180;2024-02-15T03:37:50;20.40;;;8.23;;
70455;SDS011;57916;51.996;5.180;2024-02-15T03:40:18;27.13;;;8.20;;
70455;SDS011;57916;51.996;5.180;2024-02-15T03:42:46;22.27;;;7.75;;
70455;SDS011;57916;51.996;5.180;2024-02-15T03:45:13;25.23;;;8.40;;
70455;SDS011;57916;51.996;5.180;2024-02-15T03:47:40;25.33;;;7.78;;
70455;SDS011;57916;51.996;5.180;2024-02-15T03:50:10;22.52;;;8.02;;
70455;SDS011;57916;51.996;5.180;2024-02-15T03:52:38;23.67;;;8.15;;
70455;SDS011;57916;51.996;5.180;2024-02-15T03:55:05;26.88;;;8.15;;
70455;SDS011;57916;51.996;5.180;2024-02-15T03:57:34;24.23;;;8.10;;
70455;SDS011;57916;51.996;5.180;2024-02-15T04:00:02;22.30;;;8.40;;
70455;SDS011;57916;51.996;5.180;2024-02-15T04:02:35;30.58;;;8.30;;
70455;SDS011;57916;51.996;5.180;2024-02-15T04:05:02;22.35;;;7.55;;
70455;SDS011;57916;51.996;5.180;2024-02-15T04:07:31;28.52;;;8.65;;
70455;SDS011;57916;51.996;5.180;2024-02-15T04:09:58;22.30;;;7.57;;
70455;SDS011;57916;51.996;5.180;2024-02-15T04:12:27;26.90;;;8.20;;
70455;SDS011;57916;51.996;5.180;2024-02-15T04:14:54;24.50;;;7.90;;
70455;SDS011;57916;51.996;5.180;2024-02-15T04:17:25;26.98;;;8.07;;
70455;SDS011;57916;51.996;5.180;2024-02-15T04:19:52;31.75;;;8.38;;
70455;SDS011;57916;51.996;5.180;2024-02-15T04:22:20;25.25;;;8.00;;
70455;SDS011;57916;51.996;5.180;2024-02-15T04:24:47;24.52;;;7.80;;
70455;SDS011;57916;51.996;5.180;2024-02-15T04:27:14;30.90;;;8.18;;
70455;SDS011;57916;51.996;5.180;2024-02-15T04:29:41;21.13;;;7.65;;
70455;SDS011;57916;51.996;5.180;2024-02-15T04:32:10;27.10;;;8.05;;
70455;SDS011;57916;51.996;5.180;2024-02-15T04:34:39;26.15;;;8.23;;
70455;SDS011;57916;51.996;5.180;2024-02-15T04:37:07;24.23;;;8.30;;
70455;SDS011;57916;51.996;5.180;2024-02-15T04:39:34;24.33;;;7.80;;
70455;SDS011;57916;51.996;5.180;2024-02-15T04:42:02;28.10;;;8.07;;
70455;SDS011;57916;51.996;5.180;2024-02-15T04:44:32;25.55;;;8.40;;
70455;SDS011;57916;51.996;5.180;2024-02-15T04:47:02;30.08;;;8.40;;
70455;SDS011;57916;51.996;5.180;2024-02-15T04:49:30;30.33;;;8.00;;
70455;SDS011;57916;51.996;5.180;2024-02-15T04:51:58;23.47;;;7.70;;
70455;SDS011;57916;51.996;5.180;2024-02-15T04:54:29;26.95;;;8.40;;
70455;SDS011;57916;51.996;5.180;2024-02-15T04:56:56;27.33;;;8.55;;
70455;SDS011;57916;51.996;5.180;2024-02-15T04:59:23;31.90;;;9.15;;
70455;SDS011;57916;51.996;5.180;2024-02-15T05:01:53;30.80;;;9.20;;
70455;SDS011;57916;51.996;5.180;2024-02-15T05:04:20;30.00;;;8.75;;
70455;SDS011;57916;51.996;5.180;2024-02-15T05:06:47;25.98;;;9.20;;
70455;SDS011;57916;51.996;5.180;2024-02-15T05:09:14;30.95;;;9.23;;
70455;SDS011;57916;51.996;5.180;2024-02-15T05:11:44;35.25;;;9.55;;
70455;SDS011;57916;51.996;5.180;2024-02-15T05:14:15;39.85;;;9.98;;
70455;SDS011;57916;51.996;5.180;2024-02-15T05:16:46;34.25;;;9.23;;
70455;SDS011;57916;51.996;5.180;2024-02-15T05:19:15;34.25;;;9.85;;
70455;SDS011;57916;51.996;5.180;2024-02-15T05:21:43;34.72;;;10.00;;
70455;SDS011;57916;51.996;5.180;2024-02-15T05:24:13;31.23;;;10.02;;
70455;SDS011;57916;51.996;5.180;2024-02-15T05:26:41;28.75;;;10.00;;
70455;SDS011;57916;51.996;5.180;2024-02-15T05:29:10;34.90;;;9.73;;
70455;SDS011;57916;51.996;5.180;2024-02-15T05:31:37;37.22;;;10.30;;
70455;SDS011;57916;51.996;5.180;2024-02-15T05:34:05;30.58;;;10.00;;
70455;SDS011;57916;51.996;5.180;2024-02-15T05:36:38;33.28;;;10.68;;
70455;SDS011;57916;51.996;5.180;2024-02-15T05:39:06;30.88;;;10.05;;
70455;SDS011;57916;51.996;5.180;2024-02-15T05:41:35;26.80;;;9.07;;
70455;SDS011;57916;51.996;5.180;2024-02-15T05:44:02;26.00;;;9.03;;
70455;SDS011;57916;51.996;5.180;2024-02-15T05:46:34;24.58;;;9.25;;
70455;SDS011;57916;51.996;5.180;2024-02-15T05:49:06;28.23;;;9.00;;
70455;SDS011;57916;51.996;5.180;2024-02-15T05:51:35;24.17;;;9.40;;
70455;SDS011;57916;51.996;5.180;2024-02-15T05:54:02;29.48;;;9.57;;
70455;SDS011;57916;51.996;5.180;2024-02-15T05:56:29;24.00;;;8.75;;
70455;SDS011;57916;51.996;5.180;2024-02-15T05:58:57;22.90;;;8.65;;
70455;SDS011;57916;51.996;5.180;2024-02-15T06:01:24;25.40;;;8.52;;
70455;SDS011;57916;51.996;5.180;2024-02-15T06:03:51;22.33;;;8.65;;
70455;SDS011;57916;51.996;5.180;2024-02-15T06:06:21;24.98;;;8.40;;
70455;SDS011;57916;51.996;5.180;2024-02-15T06:08:50;25.88;;;8.55;;
70455;SDS011;57916;51.996;5.180;2024-02-15T06:11:20;23.52;;;8.13;;
70455;SDS011;57916;51.996;5.180;2024-02-15T06:13:47;18.10;;;8.63;;
70455;SDS011;57916;51.996;5.180;2024-02-15T06:16:14;22.93;;;8.60;;
70455;SDS011;57916;51.996;5.180;2024-02-15T06:18:41;25.58;;;9.02;;
70455;SDS011;57916;51.996;5.180;2024-02-15T06:21:09;16.17;;;7.73;;
70455;SDS011;57916;51.996;5.180;2024-02-15T06:23:36;19.90;;;8.90;;
70455;SDS011;57916;51.996;5.180;2024-02-15T06:26:04;21.13;;;8.88;;
70455;SDS011;57916;51.996;5.180;2024-02-15T06:28:31;18.85;;;8.30;;
70455;SDS011;57916;51.996;5.180;2024-02-15T06:31:17;18.05;;;8.55;;
70455;SDS011;57916;51.996;5.180;2024-02-15T06:34:02;25.55;;;9.40;;
70455;SDS011;57916;51.996;5.180;2024-02-15T06:36:57;20.40;;;8.77;;
70455;SDS011;57916;51.996;5.180;2024-02-15T06:39:44;19.17;;;8.02;;
70455;SDS011;57916;51.996;5.180;2024-02-15T06:42:15;23.70;;;9.45;;
70455;SDS011;57916;51.996;5.180;2024-02-15T06:44:45;19.40;;;8.45;;
70455;SDS011;57916;51.996;5.180;2024-02-15T06:47:16;18.38;;;7.93;;
70455;SDS011;57916;51.996;5.180;2024-02-15T06:49:48;18.00;;;7.68;;
70455;SDS011;57916;51.996;5.180;2024-02-15T06:52:18;16.58;;;7.60;;
70455;SDS011;57916;51.996;5.180;2024-02-15T06:54:45;17.13;;;7.93;;
70455;SDS011;57916;51.996;5.180;2024-02-15T06:57:12;16.40;;;7.57;;
70455;SDS011;57916;51.996;5.180;2024-02-15T06:59:39;16.15;;;8.00;;
70455;SDS011;57916;51.996;5.180;2024-02-15T07:02:07;20.27;;;7.85;;
70455;SDS011;57916;51.996;5.180;2024-02-15T07:04:35;16.40;;;7.93;;
70455;SDS011;57916;51.996;5.180;2024-02-15T07:07:03;19.98;;;7.95;;
70455;SDS011;57916;51.996;5.180;2024-02-15T07:09:31;18.10;;;7.70;;
70455;SDS011;57916;51.996;5.180;2024-02-15T07:11:59;16.08;;;7.75;;
70455;SDS011;57916;51.996;5.180;2024-02-15T07:14:26;20.75;;;8.50;;
70455;SDS011;57916;51.996;5.180;2024-02-15T07:16:55;15.38;;;7.57;;
70455;SDS011;57916;51.996;5.180;2024-02-15T07:19:25;20.42;;;7.85;;
70455;SDS011;57916;51.996;5.180;2024-02-15T07:21:55;19.98;;;8.07;;
70455;SDS011;57916;51.996;5.180;2024-02-15T07:24:23;21.95;;;7.85;;
70455;SDS011;57916;51.996;5.180;2024-02-15T07:26:54;19.67;;;8.10;;
70455;SDS011;57916;51.996;5.180;2024-02-15T07:29:24;15.00;;;7.03;;
70455;SDS011;57916;51.996;5.180;2024-02-15T07:31:52;18.38;;;7.30;;
70455;SDS011;57916;51.996;5.180;2024-02-15T07:34:20;14.85;;;6.60;;
70455;SDS011;57916;51.996;5.180;2024-02-15T07:36:47;13.30;;;7.00;;
70455;SDS011;57916;51.996;5.180;2024-02-15T07:39:15;15.20;;;6.50;;
70455;SDS011;57916;51.996;5.180;2024-02-15T07:41:54;11.43;;;6.82;;
70455;SDS011;57916;51.996;5.180;2024-02-15T07:44:21;14.07;;;7.57;;
70455;SDS011;57916;51.996;5.180;2024-02-15T07:46:50;18.00;;;7.18;;
70455;SDS011;57916;51.996;5.180;2024-02-15T07:49:18;18.65;;;8.05;;
70455;SDS011;57916;51.996;5.180;2024-02-15T07:51:45;18.65;;;7.90;;
70455;SDS011;57916;51.996;5.180;2024-02-15T07:54:19;18.07;;;7.80;;
70455;SDS011;57916;51.996;5.180;2024-02-15T07:56:49;18.88;;;8.40;;
70455;SDS011;57916;51.996;5.180;2024-02-15T07:59:16;23.02;;;8.20;;
70455;SDS011;57916;51.996;5.180;2024-02-15T08:01:44;21.10;;;8.05;;
70455;SDS011;57916;51.996;5.180;2024-02-15T08:04:17;18.10;;;8.18;;
70455;SDS011;57916;51.996;5.180;2024-02-15T08:06:45;20.00;;;8.20;;
70455;SDS011;57916;51.996;5.180;2024-02-15T08:09:12;23.30;;;8.60;;
70455;SDS011;57916;51.996;5.180;2024-02-15T08:11:40;19.17;;;7.93;;
70455;SDS011;57916;51.996;5.180;2024-02-15T08:14:08;18.85;;;7.80;;
70455;SDS011;57916;51.996;5.180;2024-02-15T08:16:39;17.20;;;7.32;;
70455;SDS011;57916;51.996;5.180;2024-02-15T08:19:08;14.90;;;6.22;;
70455;SDS011;57916;51.996;5.180;2024-02-15T08:21:36;15.57;;;5.70;;
70455;SDS011;57916;51.996;5.180;2024-02-15T08:24:04;13.48;;;5.03;;
70455;SDS011;57916;51.996;5.180;2024-02-15T08:26:36;13.82;;;5.13;;
70455;SDS011;57916;51.996;5.180;2024-02-15T08:29:05;16.20;;;5.10;;
70455;SDS011;57916;51.996;5.180;2024-02-15T08:31:35;14.03;;;4.97;;
70455;SDS011;57916;51.996;5.180;2024-02-15T08:34:03;12.65;;;5.00;;
70455;SDS011;57916;51.996;5.180;2024-02-15T08:36:32;16.20;;;4.70;;
70455;SDS011;57916;51.996;5.180;2024-02-15T08:39:00;18.80;;;5.00;;
70455;SDS011;57916;51.996;5.180;2024-02-15T08:41:27;13.13;;;4.70;;
70455;SDS011;57916;51.996;5.180;2024-02-15T08:43:55;14.10;;;4.95;;
70455;SDS011;57916;51.996;5.180;2024-02-15T08:46:26;12.00;;;5.07;;
70455;SDS011;57916;51.996;5.180;2024-02-15T08:48:54;14.10;;;5.13;;
70455;SDS011;57916;51.996;5.180;2024-02-15T08:51:21;15.40;;;5.05;;
70455;SDS011;57916;51.996;5.180;2024-02-15T08:53:50;13.10;;;4.68;;
70455;SDS011;57916;51.996;5.180;2024-02-15T08:56:18;16.70;;;4.97;;
70455;SDS011;57916;51.996;5.180;2024-02-15T08:58:45;12.20;;;4.50;;
70455;SDS011;57916;51.996;5.180;2024-02-15T09:01:13;10.10;;;4.38;;
70455;SDS011;57916;51.996;5.180;2024-02-15T09:03:40;14.68;;;4.45;;
70455;SDS011;57916;51.996;5.180;2024-02-15T09:06:08;29.10;;;4.60;;
70455;SDS011;57916;51.996;5.180;2024-02-15T09:08:35;14.82;;;4.60;;
70455;SDS011;57916;51.996;5.180;2024-02-15T09:11:03;13.25;;;4.30;;
70455;SDS011;57916;51.996;5.180;2024-02-15T09:13:31;10.50;;;4.10;;
70455;SDS011;57916;51.996;5.180;2024-02-15T09:16:00;12.00;;;3.88;;
70455;SDS011;57916;51.996;5.180;2024-02-15T09:18:27;11.68;;;4.18;;
70455;SDS011;57916;51.996;5.180;2024-02-15T09:20:55;10.15;;;3.60;;
70455;SDS011;57916;51.996;5.180;2024-02-15T09:23:22;12.95;;;3.60;;
70455;SDS011;57916;51.996;5.180;2024-02-15T09:25:50;14.57;;;3.50;;
70455;SDS011;57916;51.996;5.180;2024-02-15T09:28:20;12.07;;;3.20;;
70455;SDS011;57916;51.996;5.180;2024-02-15T09:30:50;9.60;;;3.67;;
70455;SDS011;57916;51.996;5.180;2024-02-15T09:33:22;11.65;;;3.42;;
70455;SDS011;57916;51.996;5.180;2024-02-15T09:35:51;9.32;;;3.35;;
70455;SDS011;57916;51.996;5.180;2024-02-15T09:38:29;10.13;;;3.63;;
70455;SDS011;57916;51.996;5.180;2024-02-15T09:40:59;8.65;;;3.35;;
70455;SDS011;57916;51.996;5.180;2024-02-15T09:43:26;7.90;;;3.13;;
70455;SDS011;57916;51.996;5.180;2024-02-15T09:45:56;8.20;;;3.08;;
70455;SDS011;57916;51.996;5.180;2024-02-15T09:48:23;14.60;;;3.58;;
70455;SDS011;57916;51.996;5.180;2024-02-15T09:50:52;10.32;;;3.30;;
70455;SDS011;57916;51.996;5.180;2024-02-15T09:53:22;11.05;;;3.00;;
70455;SDS011;57916;51.996;5.180;2024-02-15T09:55:55;8.80;;;3.15;;
70455;SDS011;57916;51.996;5.180;2024-02-15T09:58:30;9.98;;;3.38;;
70455;SDS011;57916;51.996;5.180;2024-02-15T10:01:01;9.68;;;3.22;;
70455;SDS011;57916;51.996;5.180;2024-02-15T10:03:37;8.32;;;3.15;;
70455;SDS011;57916;51.996;5.180;2024-02-15T10:06:07;12.20;;;3.27;;
70455;SDS011;57916;51.996;5.180;2024-02-15T10:08:34;10.98;;;3.20;;
70455;SDS011;57916;51.996;5.180;2024-02-15T10:11:07;7.88;;;3.35;;
70455;SDS011;57916;51.996;5.180;2024-02-15T10:13:37;10.90;;;3.00;;
70455;SDS011;57916;51.996;5.180;2024-02-15T10:16:13;9.77;;;2.97;;
70455;SDS011;57916;51.996;5.180;2024-02-15T10:18:41;8.13;;;3.05;;
70455;SDS011;57916;51.996;5.180;2024-02-15T10:21:09;9.15;;;3.00;;
70455;SDS011;57916;51.996;5.180;2024-02-15T10:23:37;11.48;;;3.40;;
70455;SDS011;57916;51.996;5.180;2024-02-15T10:26:18;7.78;;;3.05;;
70455;SDS011;57916;51.996;5.180;2024-02-15T10:29:01;10.85;;;3.15;;
70455;SDS011;57916;51.996;5.180;2024-02-15T10:31:38;10.25;;;3.20;;
70455;SDS011;57916;51.996;5.180;2024-02-15T10:34:09;7.50;;;3.00;;
70455;SDS011;57916;51.996;5.180;2024-02-15T10:36:40;9.15;;;3.05;;
70455;SDS011;57916;51.996;5.180;2024-02-15T10:39:14;9.07;;;3.15;;
70455;SDS011;57916;51.996;5.180;2024-02-15T10:41:50;10.13;;;3.13;;
70455;SDS011;57916;51.996;5.180;2024-02-15T10:44:24;8.15;;;3.47;;
70455;SDS011;57916;51.996;5.180;2024-02-15T10:46:53;9.05;;;3.10;;
70455;SDS011;57916;51.996;5.180;2024-02-15T10:49:20;12.32;;;3.60;;
70455;SDS011;57916;51.996;5.180;2024-02-15T10:51:55;14.38;;;3.92;;
70455;SDS011;57916;51.996;5.180;2024-02-15T10:57:03;12.07;;;3.80;;
70455;SDS011;57916;51.996;5.180;2024-02-15T10:59:32;11.73;;;4.27;;
70455;SDS011;57916;51.996;5.180;2024-02-15T11:02:13;9.53;;;4.43;;
70455;SDS011;57916;51.996;5.180;2024-02-15T11:04:51;10.70;;;5.45;;
70455;SDS011;57916;51.996;5.180;2024-02-15T11:07:24;10.48;;;4.47;;
70455;SDS011;57916;51.996;5.180;2024-02-15T11:09:57;8.73;;;4.68;;
70455;SDS011;57916;51.996;5.180;2024-02-15T11:12:26;11.00;;;5.13;;
70455;SDS011;57916;51.996;5.180;2024-02-15T11:14:54;9.88;;;5.03;;
70455;SDS011;57916;51.996;5.180;2024-02-15T11:23:02;9.65;;;5.57;;
70455;SDS011;57916;51.996;5.180;2024-02-15T11:25:36;9.50;;;5.32;;
70455;SDS011;57916;51.996;5.180;2024-02-15T11:30:53;11.18;;;5.45;;
70455;SDS011;57916;51.996;5.180;2024-02-15T11:33:33;9.50;;;5.30;;
70455;SDS011;57916;51.996;5.180;2024-02-15T11:38:37;11.80;;;5.60;;
70455;SDS011;57916;51.996;5.180;2024-02-15T11:41:10;14.95;;;5.50;;
70455;SDS011;57916;51.996;5.180;2024-02-15T11:46:12;8.20;;;5.13;;
70455;SDS011;57916;51.996;5.180;2024-02-15T11:48:40;9.75;;;4.93;;
70455;SDS011;57916;51.996;5.180;2024-02-15T11:51:08;11.32;;;4.95;;
70455;SDS011;57916;51.996;5.180;2024-02-15T11:53:38;5.70;;;4.30;;
70455;SDS011;57916;51.996;5.180;2024-02-15T11:56:06;7.10;;;4.55;;
70455;SDS011;57916;51.996;5.180;2024-02-15T11:58:37;8.00;;;4.30;;
70455;SDS011;57916;51.996;5.180;2024-02-15T12:01:19;8.75;;;4.00;;
70455;SDS011;57916;51.996;5.180;2024-02-15T12:04:05;5.78;;;3.58;;
70455;SDS011;57916;51.996;5.180;2024-02-15T12:06:56;6.32;;;3.50;;
70455;SDS011;57916;51.996;5.180;2024-02-15T12:09:43;5.60;;;3.20;;
70455;SDS011;57916;51.996;5.180;2024-02-15T12:12:32;8.45;;;3.35;;
70455;SDS011;57916;51.996;5.180;2024-02-15T12:15:18;8.13;;;3.05;;
70455;SDS011;57916;51.996;5.180;2024-02-15T12:18:13;5.43;;;3.00;;
70455;SDS011;57916;51.996;5.180;2024-02-15T12:21:00;4.97;;;2.67;;
70455;SDS011;57916;51.996;5.180;2024-02-15T12:23:29;6.00;;;2.42;;
70455;SDS011;57916;51.996;5.180;2024-02-15T12:26:00;5.70;;;2.67;;
70455;SDS011;57916;51.996;5.180;2024-02-15T12:28:31;8.65;;;2.63;;
70455;SDS011;57916;51.996;5.180;2024-02-15T12:30:59;4.80;;;2.50;;
70455;SDS011;57916;51.996;5.180;2024-02-15T12:33:27;5.95;;;2.58;;
70455;SDS011;57916;51.996;5.180;2024-02-15T12:36:08;5.93;;;2.70;;
70455;SDS011;57916;51.996;5.180;2024-02-15T12:38:35;5.85;;;2.65;;
70455;SDS011;57916;51.996;5.180;2024-02-15T12:41:20;5.37;;;2.47;;
70455;SDS011;57916;51.996;5.180;2024-02-15T12:43:54;6.47;;;2.90;;
70455;SDS011;57916;51.996;5.180;2024-02-15T12:46:23;6.50;;;2.72;;
70455;SDS011;57916;51.996;5.180;2024-02-15T12:48:50;5.53;;;2.33;;
70455;SDS011;57916;51.996;5.180;2024-02-15T12:51:19;3.92;;;2.13;;
70455;SDS011;57916;51.996;5.180;2024-02-15T12:53:47;11.53;;;2.60;;
70455;SDS011;57916;51.996;5.180;2024-02-15T12:56:20;6.25;;;2.50;;
70455;SDS011;57916;51.996;5.180;2024-02-15T12:58:48;5.63;;;2.20;;
70455;SDS011;57916;51.996;5.180;2024-02-15T13:01:15;5.53;;;2.25;;
70455;SDS011;57916;51.996;5.180;2024-02-15T13:03:42;4.75;;;2.33;;
70455;SDS011;57916;51.996;5.180;2024-02-15T13:06:10;6.07;;;2.30;;
70455;SDS011;57916;51.996;5.180;2024-02-15T13:08:37;7.25;;;2.20;;
70455;SDS011;57916;51.996;5.180;2024-02-15T13:11:04;5.75;;;2.33;;
70455;SDS011;57916;51.996;5.180;2024-02-15T13:13:31;6.23;;;2.20;;
70455;SDS011;57916;51.996;5.180;2024-02-15T13:16:01;5.47;;;2.45;;
70455;SDS011;57916;51.996;5.180;2024-02-15T13:18:28;4.13;;;2.28;;
70455;SDS011;57916;51.996;5.180;2024-02-15T13:20:56;8.13;;;2.33;;
70455;SDS011;57916;51.996;5.180;2024-02-15T13:23:26;5.00;;;2.00;;
70455;SDS011;57916;51.996;5.180;2024-02-15T13:25:53;5.18;;;2.00;;
70455;SDS011;57916;51.996;5.180;2024-02-15T13:28:23;3.67;;;1.80;;
70455;SDS011;57916;51.996;5.180;2024-02-15T13:30:51;6.47;;;2.22;;
70455;SDS011;57916;51.996;5.180;2024-02-15T13:33:20;2.90;;;1.90;;
70455;SDS011;57916;51.996;5.180;2024-02-15T13:35:48;3.80;;;2.08;;
70455;SDS011;57916;51.996;5.180;2024-02-15T13:38:16;5.25;;;1.88;;
70455;SDS011;57916;51.996;5.180;2024-02-15T13:40:50;3.92;;;2.08;;
70455;SDS011;57916;51.996;5.180;2024-02-15T13:43:18;4.53;;;2.10;;
70455;SDS011;57916;51.996;5.180;2024-02-15T13:45:45;5.45;;;2.10;;
70455;SDS011;57916;51.996;5.180;2024-02-15T13:48:12;6.68;;;1.80;;
70455;SDS011;57916;51.996;5.180;2024-02-15T13:50:41;6.20;;;2.10;;
70455;SDS011;57916;51.996;5.180;2024-02-15T13:53:11;5.97;;;2.22;;
70455;SDS011;57916;51.996;5.180;2024-02-15T13:55:40;5.90;;;2.03;;
70455;SDS011;57916;51.996;5.180;2024-02-15T13:58:07;7.18;;;2.25;;
70455;SDS011;57916;51.996;5.180;2024-02-15T14:00:39;6.88;;;2.20;;
70455;SDS011;57916;51.996;5.180;2024-02-15T14:03:10;3.78;;;1.67;;
70455;SDS011;57916;51.996;5.180;2024-02-15T14:05:38;3.22;;;1.80;;
70455;SDS011;57916;51.996;5.180;2024-02-15T14:08:08;5.22;;;2.22;;
70455;SDS011;57916;51.996;5.180;2024-02-15T14:10:35;6.30;;;2.00;;
70455;SDS011;57916;51.996;5.180;2024-02-15T14:13:04;4.80;;;1.70;;
70455;SDS011;57916;51.996;5.180;2024-02-15T14:15:35;5.72;;;1.98;;
70455;SDS011;57916;51.996;5.180;2024-02-15T14:18:10;5.47;;;1.70;;
70455;SDS011;57916;51.996;5.180;2024-02-15T14:20:41;5.07;;;2.00;;
70455;SDS011;57916;51.996;5.180;2024-02-15T14:23:10;4.75;;;1.70;;
70455;SDS011;57916;51.996;5.180;2024-02-15T14:25:41;4.68;;;1.95;;
70455;SDS011;57916;51.996;5.180;2024-02-15T14:28:08;4.72;;;1.70;;
70455;SDS011;57916;51.996;5.180;2024-02-15T14:30:36;9.27;;;1.92;;
70455;SDS011;57916;51.996;5.180;2024-02-15T14:33:21;5.80;;;2.30;;
70455;SDS011;57916;51.996;5.180;2024-02-15T14:35:49;4.57;;;1.95;;
70455;SDS011;57916;51.996;5.180;2024-02-15T14:38:20;8.02;;;2.00;;
70455;SDS011;57916;51.996;5.180;2024-02-15T14:40:48;3.28;;;1.88;;
70455;SDS011;57916;51.996;5.180;2024-02-15T14:43:20;4.30;;;2.00;;
70455;SDS011;57916;51.996;5.180;2024-02-15T14:45:48;3.10;;;1.73;;
70455;SDS011;57916;51.996;5.180;2024-02-15T14:48:16;7.32;;;2.13;;
70455;SDS011;57916;51.996;5.180;2024-02-15T14:50:47;7.15;;;1.95;;
70455;SDS011;57916;51.996;5.180;2024-02-15T14:53:18;6.55;;;1.95;;
70455;SDS011;57916;51.996;5.180;2024-02-15T14:55:45;6.20;;;2.20;;
70455;SDS011;57916;51.996;5.180;2024-02-15T14:58:13;4.10;;;1.83;;
70455;SDS011;57916;51.996;5.180;2024-02-15T15:00:43;5.95;;;1.90;;
70455;SDS011;57916;51.996;5.180;2024-02-15T15:03:12;4.60;;;1.67;;
70455;SDS011;57916;51.996;5.180;2024-02-15T15:05:40;5.82;;;1.90;;
70455;SDS011;57916;51.996;5.180;2024-02-15T15:08:27;1.83;;;1.50;;
70455;SDS011;57916;51.996;5.180;2024-02-15T15:11:13;7.85;;;2.20;;